createdAt,value
2019-03-24T00:00:16.376Z,90.10
2019-03-24T00:02:49.478Z,90.10
2019-03-24T00:05:21.972Z,90.30
2019-03-24T00:07:53.543Z,90.10
2019-03-24T00:10:24.968Z,90.00
2019-03-24T00:12:56.471Z,89.40
2019-03-24T00:15:27.958Z,90.20
2019-03-24T00:17:59.330Z,90.10
2019-03-24T00:20:30.600Z,90.20
2019-03-24T00:23:02.073Z,90.00
2019-03-24T00:25:33.487Z,90.30
2019-03-24T00:28:05.077Z,90.50
2019-03-24T00:30:36.560Z,90.80
2019-03-24T00:33:07.872Z,90.70
2019-03-24T00:35:39.247Z,90.90
2019-03-24T00:38:10.704Z,90.80
2019-03-24T00:40:42.175Z,90.90
2019-03-24T00:43:13.784Z,90.80
2019-03-24T00:45:49.758Z,90.80
2019-03-24T00:48:21.280Z,90.80
2019-03-24T00:50:52.789Z,90.80
2019-03-24T00:53:24.293Z,90.80
2019-03-24T00:55:55.688Z,90.90
2019-03-24T00:58:27.111Z,90.80
2019-03-24T01:00:58.589Z,91.20
2019-03-24T01:03:30.029Z,91.40
2019-03-24T01:06:01.925Z,91.10
2019-03-24T01:08:34.335Z,91.30
2019-03-24T01:11:05.924Z,91.80
2019-03-24T01:13:37.341Z,91.40
2019-03-24T01:16:08.712Z,91.30
2019-03-24T01:18:40.051Z,91.40
2019-03-24T01:21:11.464Z,91.60
2019-03-24T01:23:42.942Z,91.60
2019-03-24T01:26:15.268Z,91.80
2019-03-24T01:28:46.829Z,91.90
2019-03-24T01:31:18.137Z,91.90
2019-03-24T01:33:49.728Z,91.70
2019-03-24T01:36:21.114Z,92.10
2019-03-24T01:38:52.525Z,92.00
2019-03-24T01:41:23.662Z,92.10
2019-03-24T01:43:55.292Z,92.10
2019-03-24T01:46:26.846Z,92.00
2019-03-24T01:48:58.364Z,92.10
2019-03-24T01:51:29.856Z,92.60
2019-03-24T01:54:01.219Z,93.00
2019-03-24T01:56:32.775Z,92.50
2019-03-24T01:59:04.157Z,92.70
2019-03-24T02:01:35.574Z,92.30
2019-03-24T02:04:06.920Z,91.90
2019-03-24T02:06:38.737Z,92.00
2019-03-24T02:09:10.943Z,92.10
2019-03-24T02:11:42.439Z,92.00
2019-03-24T02:14:14.073Z,91.70
2019-03-24T02:16:45.472Z,91.80
2019-03-24T02:19:16.873Z,91.80
2019-03-24T02:21:48.245Z,91.30
2019-03-24T02:24:19.756Z,90.90
2019-03-24T02:26:51.176Z,90.60
2019-03-24T02:29:22.789Z,90.60
2019-03-24T02:31:54.182Z,90.40
2019-03-24T02:34:25.785Z,90.50
2019-03-24T02:36:57.083Z,90.30
2019-03-24T02:39:28.589Z,90.50
2019-03-24T02:41:59.986Z,90.60
2019-03-24T02:44:31.692Z,90.60
2019-03-24T02:47:03.194Z,90.50
2019-03-24T02:49:34.603Z,90.60
2019-03-24T02:52:06.337Z,90.70
2019-03-24T02:54:37.807Z,90.80
2019-03-24T02:57:09.336Z,90.80
2019-03-24T02:59:40.649Z,90.80
2019-03-24T03:02:12.263Z,91.10
2019-03-24T03:04:43.741Z,91.20
2019-03-24T03:07:15.152Z,91.30
2019-03-24T03:09:46.633Z,91.70
2019-03-24T03:12:19.158Z,91.40
2019-03-24T03:14:50.841Z,91.60
2019-03-24T03:17:22.421Z,91.40
2019-03-24T03:19:54.049Z,91.30
2019-03-24T03:22:25.411Z,91.60
2019-03-24T03:24:56.598Z,92.00
2019-03-24T03:27:27.974Z,91.80
2019-03-24T03:29:59.405Z,91.50
2019-03-24T03:32:30.762Z,91.40
2019-03-24T03:35:02.147Z,91.20
2019-03-24T03:37:33.702Z,91.80
2019-03-24T03:40:05.259Z,91.70
2019-03-24T03:42:36.649Z,91.60
2019-03-24T03:45:08.113Z,91.40
2019-03-24T03:47:39.392Z,91.60
2019-03-24T03:50:10.708Z,91.60
2019-03-24T03:52:42.321Z,91.70
2019-03-24T03:55:13.509Z,91.90
2019-03-24T03:57:44.770Z,92.20
2019-03-24T04:00:15.996Z,91.80
2019-03-24T04:02:47.449Z,92.10
2019-03-24T04:05:18.792Z,92.20
2019-03-24T04:07:50.262Z,92.20
2019-03-24T04:10:21.522Z,92.10
2019-03-24T04:12:52.701Z,91.80
2019-03-24T04:15:24.007Z,92.20
2019-03-24T04:17:56.258Z,92.20
2019-03-24T04:20:27.787Z,92.00
2019-03-24T04:22:59.323Z,92.00
2019-03-24T04:25:30.592Z,92.10
2019-03-24T04:28:02.169Z,92.00
2019-03-24T04:30:33.371Z,91.70
2019-03-24T04:33:04.989Z,91.70
2019-03-24T04:35:36.445Z,92.80
2019-03-24T04:38:07.842Z,93.00
2019-03-24T04:40:39.286Z,93.10
2019-03-24T04:43:10.955Z,93.10
2019-03-24T04:45:42.427Z,93.20
2019-03-24T04:48:13.913Z,93.40
2019-03-24T04:50:45.370Z,92.80
2019-03-24T04:53:16.862Z,92.80
2019-03-24T04:55:48.133Z,92.50
2019-03-24T04:58:19.648Z,92.30
2019-03-24T05:00:51.143Z,92.30
2019-03-24T05:03:22.667Z,92.40
2019-03-24T05:05:55.064Z,92.10
2019-03-24T05:08:26.708Z,92.00
2019-03-24T05:10:58.182Z,92.00
2019-03-24T05:13:29.576Z,92.00
2019-03-24T05:16:00.955Z,92.40
2019-03-24T05:18:32.372Z,92.00
2019-03-24T05:21:03.855Z,92.50
2019-03-24T05:23:35.285Z,92.60
2019-03-24T05:26:06.763Z,92.70
2019-03-24T05:28:38.325Z,93.00
2019-03-24T05:31:09.793Z,93.30
2019-03-24T05:33:41.081Z,93.70
2019-03-24T05:36:25.501Z,94.20
2019-03-24T05:38:56.857Z,93.70
2019-03-24T05:41:28.188Z,93.20
2019-03-24T05:43:59.586Z,94.10
2019-03-24T05:46:31.208Z,94.60
2019-03-24T05:49:02.582Z,94.40
2019-03-24T05:51:33.898Z,94.70
2019-03-24T05:54:05.506Z,94.50
2019-03-24T05:56:36.985Z,94.30
2019-03-24T05:59:08.406Z,94.40
2019-03-24T06:01:39.785Z,94.10
2019-03-24T06:04:11.295Z,94.10
2019-03-24T06:06:42.784Z,93.80
2019-03-24T06:09:14.198Z,93.90
2019-03-24T06:11:45.486Z,93.90
2019-03-24T06:14:16.892Z,93.90
2019-03-24T06:16:48.380Z,93.70
2019-03-24T06:19:19.902Z,94.00
2019-03-24T06:21:51.524Z,94.30
2019-03-24T06:24:22.745Z,94.10
2019-03-24T06:26:54.294Z,93.90
2019-03-24T06:29:25.698Z,93.60
2019-03-24T06:31:57.092Z,93.30
2019-03-24T06:34:28.461Z,93.20
2019-03-24T06:36:59.820Z,93.00
2019-03-24T06:39:31.280Z,93.60
2019-03-24T06:42:02.681Z,93.50
2019-03-24T06:44:34.039Z,93.00
2019-03-24T06:47:05.406Z,93.30
2019-03-24T06:49:36.860Z,93.10
2019-03-24T06:52:08.265Z,93.20
2019-03-24T06:54:39.781Z,93.20
2019-03-24T06:57:11.182Z,93.30
2019-03-24T06:59:42.577Z,93.40
2019-03-24T07:02:13.968Z,93.00
2019-03-24T07:04:45.447Z,93.20
2019-03-24T07:07:16.905Z,92.80
2019-03-24T07:09:48.390Z,92.40
2019-03-24T07:12:19.972Z,92.50
2019-03-24T07:14:51.540Z,92.30
2019-03-24T07:17:22.867Z,92.20
2019-03-24T07:19:54.501Z,91.90
2019-03-24T07:22:26.226Z,91.80
2019-03-24T07:24:57.797Z,91.20
2019-03-24T07:27:29.221Z,90.60
2019-03-24T07:30:00.660Z,91.50
2019-03-24T07:32:32.085Z,90.70
2019-03-24T07:35:03.385Z,90.60
2019-03-24T07:37:34.922Z,88.10
2019-03-24T07:40:07.440Z,86.20
2019-03-24T07:42:40.735Z,87.10
2019-03-24T07:45:12.148Z,85.60
2019-03-24T07:47:43.576Z,86.20
2019-03-24T07:50:15.055Z,82.80
2019-03-24T07:52:46.639Z,83.60
2019-03-24T07:55:18.176Z,81.60
2019-03-24T07:57:49.650Z,80.50
2019-03-24T08:00:33.558Z,79.80
2019-03-24T08:03:05.023Z,76.90
2019-03-24T08:05:36.424Z,78.30
2019-03-24T08:08:07.846Z,76.20
2019-03-24T08:10:39.133Z,79.80
2019-03-24T08:13:10.536Z,75.10
2019-03-24T08:15:42.012Z,74.80
2019-03-24T08:18:13.476Z,74.20
2019-03-24T08:20:45.002Z,75.70
2019-03-24T08:23:16.440Z,73.40
2019-03-24T08:25:47.773Z,69.10
2019-03-24T08:28:19.249Z,69.80
2019-03-24T08:30:50.848Z,68.20
2019-03-24T08:33:21.999Z,70.30
2019-03-24T08:35:53.214Z,63.10
2019-03-24T08:38:24.455Z,63.60
2019-03-24T08:40:55.951Z,60.40
2019-03-24T08:43:27.309Z,58.90
2019-03-24T08:45:58.812Z,59.00
2019-03-24T08:48:40.178Z,56.60
2019-03-24T08:51:03.563Z,55.10
2019-03-24T08:53:35.020Z,54.20
2019-03-24T08:56:06.593Z,54.70
2019-03-24T08:58:38.080Z,55.20
2019-03-24T09:01:09.599Z,59.60
2019-03-24T09:03:41.094Z,57.00
2019-03-24T09:06:12.573Z,55.00
2019-03-24T09:08:44.000Z,53.60
2019-03-24T09:11:15.353Z,52.00
2019-03-24T09:13:46.674Z,52.80
2019-03-24T09:16:18.196Z,53.30
2019-03-24T09:18:52.793Z,54.30
2019-03-24T09:21:22.558Z,50.40
2019-03-24T09:23:54.808Z,50.70
2019-03-24T09:26:26.441Z,50.20
2019-03-24T09:28:59.332Z,47.30
2019-03-24T09:31:30.868Z,48.50
2019-03-24T09:34:02.247Z,50.80
2019-03-24T09:36:33.687Z,49.80
2019-03-24T09:39:05.962Z,49.50
2019-03-24T09:41:37.485Z,53.50
2019-03-24T09:44:08.985Z,52.00
2019-03-24T09:46:40.392Z,47.00
2019-03-24T09:49:11.717Z,52.40
2019-03-24T09:51:43.209Z,49.20
2019-03-24T09:54:14.493Z,47.30
2019-03-24T09:56:45.882Z,47.90
2019-03-24T09:59:17.271Z,49.30
2019-03-24T10:01:48.785Z,50.60
2019-03-24T10:04:20.192Z,50.00
2019-03-24T10:06:51.474Z,52.20
2019-03-24T10:09:22.875Z,52.50
2019-03-24T10:11:54.269Z,51.40
2019-03-24T10:14:25.876Z,53.60
2019-03-24T10:16:57.374Z,51.70
2019-03-24T10:19:30.028Z,53.00
2019-03-24T10:22:01.496Z,49.50
2019-03-24T10:24:32.838Z,52.80
2019-03-24T10:27:04.299Z,50.10
2019-03-24T10:29:35.451Z,48.70
2019-03-24T10:32:06.903Z,49.10
2019-03-24T10:34:38.396Z,41.40
2019-03-24T10:37:09.891Z,44.90
2019-03-24T10:39:41.214Z,46.90
2019-03-24T10:42:12.620Z,44.80
2019-03-24T10:44:44.122Z,46.60
2019-03-24T10:47:15.610Z,46.50
2019-03-24T10:49:47.099Z,46.90
2019-03-24T10:52:18.510Z,48.10
2019-03-24T10:54:50.134Z,48.20
2019-03-24T10:57:21.615Z,47.30
2019-03-24T10:59:52.913Z,45.10
2019-03-24T11:02:24.377Z,44.90
2019-03-24T11:04:55.731Z,47.60
2019-03-24T11:07:27.197Z,46.80
2019-03-24T11:09:58.601Z,48.00
2019-03-24T11:12:30.104Z,40.30
2019-03-24T11:15:01.375Z,45.10
2019-03-24T11:17:32.922Z,45.40
2019-03-24T11:20:04.373Z,42.20
2019-03-24T11:22:36.001Z,45.00
2019-03-24T11:25:08.712Z,42.70
2019-03-24T11:27:40.435Z,43.90
2019-03-24T11:30:12.878Z,43.80
2019-03-24T11:32:44.392Z,39.40
2019-03-24T11:35:15.941Z,39.50
2019-03-24T11:37:47.464Z,44.30
2019-03-24T11:40:19.077Z,45.10
2019-03-24T11:42:50.599Z,44.60
2019-03-24T11:45:22.106Z,43.80
2019-03-24T11:47:53.601Z,44.00
2019-03-24T11:50:25.077Z,43.00
2019-03-24T11:52:56.669Z,41.90
2019-03-24T11:55:28.061Z,42.50
2019-03-24T11:58:05.599Z,42.70
2019-03-24T12:00:36.728Z,41.00
2019-03-24T12:03:08.135Z,43.00
2019-03-24T12:05:40.718Z,43.00
2019-03-24T12:08:12.246Z,42.60
2019-03-24T12:10:43.760Z,40.40
2019-03-24T12:13:15.173Z,43.80
2019-03-24T12:15:46.641Z,41.50
2019-03-24T12:18:18.080Z,46.00
2019-03-24T12:20:49.456Z,44.00
2019-03-24T12:23:21.083Z,44.00
2019-03-24T12:25:52.657Z,46.20
2019-03-24T12:28:23.944Z,44.30
2019-03-24T12:30:55.453Z,44.40
2019-03-24T12:33:26.933Z,40.20
2019-03-24T12:35:58.269Z,45.30
2019-03-24T12:38:31.375Z,44.90
2019-03-24T12:41:02.709Z,41.70
2019-03-24T12:43:34.176Z,43.30
2019-03-24T12:46:05.409Z,42.50
2019-03-24T12:48:36.993Z,46.20
2019-03-24T12:51:08.402Z,45.40
2019-03-24T12:53:39.607Z,45.20
2019-03-24T12:56:11.191Z,46.90
2019-03-24T12:58:42.591Z,44.60
2019-03-24T13:01:14.802Z,46.50
2019-03-24T13:03:46.182Z,44.80
2019-03-24T13:06:17.631Z,43.60
2019-03-24T13:08:49.062Z,47.20
2019-03-24T13:11:20.683Z,45.20
2019-03-24T13:13:52.127Z,44.70
2019-03-24T13:16:23.518Z,47.00
2019-03-24T13:18:54.935Z,47.90
2019-03-24T13:21:26.314Z,44.70
2019-03-24T13:23:57.769Z,44.30
2019-03-24T13:26:29.219Z,46.70
2019-03-24T13:29:01.785Z,42.70
2019-03-24T13:31:33.192Z,45.90
2019-03-24T13:34:04.618Z,46.40
2019-03-24T13:36:36.203Z,48.50
2019-03-24T13:39:08.334Z,46.70
2019-03-24T13:41:39.808Z,44.70
2019-03-24T13:44:11.277Z,45.30
2019-03-24T13:46:42.729Z,44.90
2019-03-24T13:49:14.217Z,46.10
2019-03-24T13:51:45.572Z,45.90
2019-03-24T13:54:17.018Z,46.10
2019-03-24T13:56:48.508Z,44.60
2019-03-24T13:59:19.883Z,45.10
2019-03-24T14:01:51.295Z,45.50
2019-03-24T14:04:22.768Z,43.80
2019-03-24T14:06:54.233Z,43.50
2019-03-24T14:09:25.607Z,46.00
2019-03-24T14:11:57.107Z,45.00
2019-03-24T14:14:28.507Z,46.10
2019-03-24T14:16:59.879Z,46.30
2019-03-24T14:19:31.368Z,46.10
2019-03-24T14:22:02.917Z,48.20
2019-03-24T14:24:34.474Z,47.60
2019-03-24T14:27:07.870Z,48.20
2019-03-24T14:29:39.381Z,48.00
2019-03-24T14:32:10.835Z,48.20
2019-03-24T14:34:42.257Z,49.60
2019-03-24T14:37:13.652Z,48.40
2019-03-24T14:39:45.149Z,52.00
2019-03-24T14:42:16.578Z,49.90
2019-03-24T14:44:48.133Z,52.20
2019-03-24T14:47:19.676Z,54.10
2019-03-24T14:49:51.186Z,54.90
2019-03-24T14:52:22.580Z,55.40
2019-03-24T14:54:54.128Z,57.30
2019-03-24T14:57:26.486Z,57.60
2019-03-24T14:59:57.983Z,57.60
2019-03-24T15:02:29.399Z,59.50
2019-03-24T15:05:00.863Z,58.80
2019-03-24T15:07:32.580Z,59.20
2019-03-24T15:10:04.013Z,59.20
2019-03-24T15:12:35.602Z,63.20
2019-03-24T15:15:07.566Z,60.90
2019-03-24T15:17:39.026Z,62.00
2019-03-24T15:20:10.511Z,59.20
2019-03-24T15:22:42.120Z,60.00
2019-03-24T15:25:13.627Z,60.00
2019-03-24T15:27:45.129Z,60.00
2019-03-24T15:30:16.593Z,58.60
2019-03-24T15:32:48.093Z,57.70
2019-03-24T15:35:19.712Z,56.40
2019-03-24T15:37:51.243Z,58.30
2019-03-24T15:40:22.769Z,59.70
2019-03-24T15:42:54.441Z,59.10
2019-03-24T15:45:25.998Z,59.50
2019-03-24T15:47:57.553Z,61.50
2019-03-24T15:50:29.037Z,61.70
2019-03-24T15:53:00.547Z,60.20
2019-03-24T15:55:32.129Z,60.20
2019-03-24T15:58:03.640Z,60.80
2019-03-24T16:00:59.936Z,62.00
2019-03-24T16:03:31.340Z,62.90
2019-03-24T16:06:02.805Z,61.90
2019-03-24T16:08:35.349Z,61.60
2019-03-24T16:11:06.841Z,61.10
2019-03-24T16:13:38.373Z,59.60
2019-03-24T16:16:09.843Z,57.40
2019-03-24T16:18:41.237Z,56.50
2019-03-24T16:21:12.540Z,60.70
2019-03-24T16:23:43.931Z,61.90
2019-03-24T16:26:15.331Z,62.80
2019-03-24T16:28:46.738Z,64.70
2019-03-24T16:31:18.057Z,65.00
2019-03-24T16:33:49.563Z,67.30
2019-03-24T16:36:20.928Z,65.50
2019-03-24T16:39:02.983Z,66.70
2019-03-24T16:41:25.500Z,65.40
2019-03-24T16:43:57.010Z,66.00
2019-03-24T16:46:28.518Z,66.40
2019-03-24T16:49:00.092Z,65.60
2019-03-24T16:51:38.574Z,66.60
2019-03-24T16:54:04.625Z,65.70
2019-03-24T16:56:36.041Z,66.30
2019-03-24T16:59:07.557Z,66.30
2019-03-24T17:01:38.913Z,65.50
2019-03-24T17:04:10.414Z,66.00
2019-03-24T17:06:41.945Z,66.60
2019-03-24T17:09:13.300Z,64.80
2019-03-24T17:11:44.704Z,65.40
2019-03-24T17:14:16.304Z,65.90
2019-03-24T17:16:47.848Z,67.70
2019-03-24T17:19:19.196Z,66.40
2019-03-24T17:21:52.470Z,66.00
2019-03-24T17:24:24.025Z,66.10
2019-03-24T17:26:55.370Z,67.30
2019-03-24T17:29:26.653Z,67.50
2019-03-24T17:31:58.096Z,69.40
2019-03-24T17:34:29.573Z,71.10
2019-03-24T17:37:01.060Z,71.60
2019-03-24T17:39:33.498Z,70.00
2019-03-24T17:42:04.880Z,68.40
2019-03-24T17:44:37.828Z,70.00
2019-03-24T17:47:09.233Z,72.10
2019-03-24T17:49:40.959Z,71.70
2019-03-24T17:52:12.245Z,72.30
2019-03-24T17:54:44.650Z,72.50
2019-03-24T17:57:16.175Z,71.90
2019-03-24T17:59:47.774Z,72.30
2019-03-24T18:02:19.281Z,72.20
2019-03-24T18:04:50.844Z,70.80
2019-03-24T18:07:22.209Z,70.80
2019-03-24T18:09:53.534Z,71.20
2019-03-24T18:12:24.948Z,71.30
2019-03-24T18:14:56.266Z,71.40
2019-03-24T18:17:27.676Z,72.00
2019-03-24T18:19:59.147Z,73.40
2019-03-24T18:22:30.550Z,74.30
2019-03-24T18:25:02.024Z,73.90
2019-03-24T18:27:33.502Z,74.50
2019-03-24T18:30:06.710Z,73.90
2019-03-24T18:32:38.305Z,73.90
2019-03-24T18:35:09.809Z,74.00
2019-03-24T18:37:41.200Z,74.00
2019-03-24T18:40:12.704Z,74.10
2019-03-24T18:42:44.191Z,75.50
2019-03-24T18:45:15.453Z,78.30
2019-03-24T18:47:46.912Z,79.90
2019-03-24T18:50:18.517Z,79.70
2019-03-24T18:52:50.224Z,77.90
2019-03-24T18:55:21.781Z,78.90
2019-03-24T18:57:53.195Z,79.40
2019-03-24T19:00:24.932Z,80.50
2019-03-24T19:02:56.382Z,80.30
2019-03-24T19:05:27.907Z,80.90
2019-03-24T19:07:59.317Z,80.80
2019-03-24T19:10:30.833Z,80.90
2019-03-24T19:13:02.388Z,80.40
2019-03-24T19:15:33.804Z,80.50
2019-03-24T19:18:05.329Z,80.40
2019-03-24T19:20:36.547Z,80.70
2019-03-24T19:23:07.743Z,80.90
2019-03-24T19:25:39.144Z,81.30
2019-03-24T19:28:10.752Z,80.80
2019-03-24T19:30:42.281Z,80.50
2019-03-24T19:33:13.549Z,80.80
2019-03-24T19:35:44.753Z,81.80
2019-03-24T19:38:16.118Z,81.70
2019-03-24T19:40:47.538Z,82.70
2019-03-24T19:43:18.722Z,81.60
2019-03-24T19:45:50.072Z,81.90
2019-03-24T19:48:21.422Z,82.00
2019-03-24T19:50:52.714Z,81.40
2019-03-24T19:53:24.226Z,82.20
2019-03-24T19:55:55.325Z,83.40
2019-03-24T19:58:26.815Z,83.50
2019-03-24T20:00:58.197Z,84.10
2019-03-24T20:03:29.725Z,82.80
2019-03-24T20:06:01.042Z,83.80
2019-03-24T20:08:32.410Z,83.80
2019-03-24T20:11:03.832Z,83.50
2019-03-24T20:13:35.102Z,82.50
2019-03-24T20:16:06.439Z,83.50
2019-03-24T20:18:37.783Z,83.20
2019-03-24T20:21:09.110Z,83.10
2019-03-24T20:23:40.394Z,83.80
2019-03-24T20:26:11.744Z,84.00
2019-03-24T20:28:42.900Z,83.90
2019-03-24T20:31:14.177Z,85.40
2019-03-24T20:33:45.393Z,84.30
2019-03-24T20:36:16.598Z,85.20
2019-03-24T20:38:48.993Z,85.90
2019-03-24T20:41:20.426Z,85.20
2019-03-24T20:43:51.855Z,84.30
2019-03-24T20:46:23.378Z,84.40
2019-03-24T20:48:54.804Z,85.40
2019-03-24T20:51:26.356Z,84.50
2019-03-24T20:53:57.772Z,84.90
2019-03-24T20:56:29.348Z,85.90
2019-03-24T20:59:00.777Z,86.00
2019-03-24T21:01:32.355Z,86.40
2019-03-24T21:04:03.757Z,87.00
2019-03-24T21:06:35.091Z,88.40
2019-03-24T21:09:08.461Z,88.80
2019-03-24T21:11:39.952Z,87.60
2019-03-24T21:14:11.290Z,87.40
2019-03-24T21:16:42.832Z,87.00
2019-03-24T21:19:14.364Z,88.40
2019-03-24T21:21:45.650Z,87.50
2019-03-24T21:24:17.116Z,88.50
2019-03-24T21:26:48.626Z,88.50
2019-03-24T21:29:19.990Z,86.30
2019-03-24T21:31:51.515Z,85.50
2019-03-24T21:34:23.000Z,85.20
2019-03-24T21:36:54.506Z,85.00
2019-03-24T21:39:25.773Z,86.70
2019-03-24T21:41:57.271Z,87.00
2019-03-24T21:44:28.465Z,86.70
2019-03-24T21:46:59.843Z,86.80
2019-03-24T21:49:31.141Z,87.10
2019-03-24T21:52:02.550Z,87.70
2019-03-24T21:54:33.919Z,87.80
2019-03-24T21:57:05.304Z,87.30
2019-03-24T21:59:36.524Z,87.80
2019-03-24T22:02:07.902Z,87.50
2019-03-24T22:04:39.301Z,88.20
2019-03-24T22:07:10.497Z,88.40
2019-03-24T22:09:41.815Z,87.80
2019-03-24T22:12:13.034Z,88.20
2019-03-24T22:14:44.564Z,88.10
2019-03-24T22:17:15.910Z,88.30
2019-03-24T22:19:47.306Z,87.80
2019-03-24T22:22:18.670Z,89.20
2019-03-24T22:24:50.028Z,88.70
2019-03-24T22:27:21.444Z,88.20
2019-03-24T22:29:52.809Z,88.80
2019-03-24T22:32:24.293Z,90.00
2019-03-24T22:34:55.777Z,90.10
2019-03-24T22:37:27.030Z,89.50
2019-03-24T22:39:58.195Z,90.00
2019-03-24T22:42:29.743Z,90.00
2019-03-24T22:45:00.899Z,89.50
2019-03-24T22:47:32.277Z,89.30
2019-03-24T22:50:03.589Z,89.40
2019-03-24T22:52:35.285Z,89.50
2019-03-24T22:55:06.438Z,89.80
2019-03-24T22:57:37.750Z,89.80
2019-03-24T23:00:13.242Z,88.90
2019-03-24T23:02:46.080Z,89.50
2019-03-24T23:05:17.428Z,89.90
2019-03-24T23:07:48.859Z,90.10
2019-03-24T23:10:20.326Z,90.20
2019-03-24T23:12:51.852Z,90.30
2019-03-24T23:15:23.175Z,90.50
2019-03-24T23:17:54.359Z,90.10
2019-03-24T23:20:25.853Z,90.50
2019-03-24T23:22:57.138Z,90.50
2019-03-24T23:25:28.558Z,90.30
2019-03-24T23:28:00.271Z,90.70
2019-03-24T23:30:31.841Z,90.40
2019-03-24T23:33:03.439Z,90.60
2019-03-24T23:35:34.869Z,90.40
2019-03-24T23:38:06.506Z,90.20
2019-03-24T23:40:38.061Z,90.50
2019-03-24T23:43:09.589Z,90.40
2019-03-24T23:45:41.169Z,90.30
2019-03-24T23:48:12.672Z,90.20
2019-03-24T23:50:44.089Z,90.40
2019-03-24T23:53:15.472Z,90.20
2019-03-24T23:55:46.618Z,90.50
2019-03-24T23:58:18.247Z,90.50
